sensor_id;sensor_type;location;lat;lon;timestamp;P1;durP1;ratioP1;P2;durP2;ratioP2
3177;SDS011;38141;42.666;23.344;2023-04-01T00:00:58;17.00;;;9.70;;
3177;SDS011;38141;42.666;23.344;2023-04-01T00:03:26;13.63;;;9.40;;
3177;SDS011;38141;42.666;23.344;2023-04-01T00:05:54;17.03;;;9.33;;
3177;SDS011;38141;42.666;23.344;2023-04-01T00:08:22;15.30;;;9.53;;
3177;SDS011;38141;42.666;23.344;2023-04-01T00:10:50;17.20;;;10.50;;
3177;SDS011;38141;42.666;23.344;2023-04-01T00:13:17;29.10;;;17.13;;
3177;SDS011;38141;42.666;23.344;2023-04-01T00:15:44;31.13;;;17.20;;
3177;SDS011;38141;42.666;23.344;2023-04-01T00:18:11;33.03;;;18.70;;
3177;SDS011;38141;42.666;23.344;2023-04-01T00:20:38;33.30;;;16.27;;
3177;SDS011;38141;42.666;23.344;2023-04-01T00:23:05;25.87;;;15.50;;
3177;SDS011;38141;42.666;23.344;2023-04-01T00:25:32;23.03;;;14.27;;
3177;SDS011;38141;42.666;23.344;2023-04-01T00:28:00;20.03;;;13.33;;
3177;SDS011;38141;42.666;23.344;2023-04-01T00:30:27;24.93;;;12.53;;
3177;SDS011;38141;42.666;23.344;2023-04-01T00:33:02;21.27;;;12.73;;
3177;SDS011;38141;42.666;23.344;2023-04-01T00:35:29;22.17;;;13.90;;
3177;SDS011;38141;42.666;23.344;2023-04-01T00:37:57;20.90;;;12.43;;
3177;SDS011;38141;42.666;23.344;2023-04-01T00:40:25;17.30;;;12.20;;
3177;SDS011;38141;42.666;23.344;2023-04-01T00:42:54;22.77;;;14.43;;
3177;SDS011;38141;42.666;23.344;2023-04-01T00:45:33;23.23;;;13.77;;
3177;SDS011;38141;42.666;23.344;2023-04-01T00:48:02;24.97;;;14.00;;
3177;SDS011;38141;42.666;23.344;2023-04-01T00:50:32;21.07;;;13.03;;
3177;SDS011;38141;42.666;23.344;2023-04-01T00:53:00;21.93;;;13.03;;
3177;SDS011;38141;42.666;23.344;2023-04-01T00:55:28;20.63;;;11.77;;
3177;SDS011;38141;42.666;23.344;2023-04-01T00:57:59;23.83;;;13.20;;
3177;SDS011;38141;42.666;23.344;2023-04-01T01:00:28;21.47;;;13.03;;
3177;SDS011;38141;42.666;23.344;2023-04-01T01:02:57;23.40;;;13.10;;
3177;SDS011;38141;42.666;23.344;2023-04-01T01:05:28;18.10;;;11.40;;
3177;SDS011;38141;42.666;23.344;2023-04-01T01:08:06;14.90;;;10.70;;
3177;SDS011;38141;42.666;23.344;2023-04-01T01:10:43;18.30;;;10.30;;
3177;SDS011;38141;42.666;23.344;2023-04-01T01:13:16;20.73;;;11.60;;
3177;SDS011;38141;42.666;23.344;2023-04-01T01:15:49;16.80;;;10.20;;
3177;SDS011;38141;42.666;23.344;2023-04-01T01:18:31;17.97;;;9.80;;
3177;SDS011;38141;42.666;23.344;2023-04-01T01:24:19;14.13;;;8.50;;
3177;SDS011;38141;42.666;23.344;2023-04-01T01:26:59;13.67;;;8.40;;
3177;SDS011;38141;42.666;23.344;2023-04-01T01:29:39;18.43;;;9.50;;
3177;SDS011;38141;42.666;23.344;2023-04-01T01:32:14;13.67;;;9.53;;
3177;SDS011;38141;42.666;23.344;2023-04-01T01:34:53;15.43;;;9.17;;
3177;SDS011;38141;42.666;23.344;2023-04-01T01:37:24;17.17;;;9.63;;
3177;SDS011;38141;42.666;23.344;2023-04-01T01:39:54;16.13;;;9.03;;
3177;SDS011;38141;42.666;23.344;2023-04-01T01:42:25;11.03;;;8.87;;
3177;SDS011;38141;42.666;23.344;2023-04-01T01:44:54;18.00;;;8.33;;
3177;SDS011;38141;42.666;23.344;2023-04-01T01:47:24;12.73;;;9.07;;
3177;SDS011;38141;42.666;23.344;2023-04-01T01:49:52;11.00;;;7.93;;
3177;SDS011;38141;42.666;23.344;2023-04-01T01:52:21;14.13;;;8.07;;
3177;SDS011;38141;42.666;23.344;2023-04-01T01:54:49;14.37;;;8.90;;
3177;SDS011;38141;42.666;23.344;2023-04-01T01:57:17;14.13;;;7.63;;
3177;SDS011;38141;42.666;23.344;2023-04-01T01:59:48;14.10;;;8.10;;
3177;SDS011;38141;42.666;23.344;2023-04-01T02:02:19;14.50;;;7.50;;
3177;SDS011;38141;42.666;23.344;2023-04-01T02:04:46;15.07;;;6.63;;
3177;SDS011;38141;42.666;23.344;2023-04-01T02:07:14;8.97;;;6.07;;
3177;SDS011;38141;42.666;23.344;2023-04-01T02:09:45;12.90;;;6.83;;
3177;SDS011;38141;42.666;23.344;2023-04-01T02:12:14;17.40;;;8.33;;
3177;SDS011;38141;42.666;23.344;2023-04-01T02:14:43;19.47;;;11.03;;
3177;SDS011;38141;42.666;23.344;2023-04-01T02:17:14;16.70;;;9.53;;
3177;SDS011;38141;42.666;23.344;2023-04-01T02:19:44;20.30;;;9.20;;
3177;SDS011;38141;42.666;23.344;2023-04-01T02:22:16;7.57;;;5.43;;
3177;SDS011;38141;42.666;23.344;2023-04-01T02:24:47;14.27;;;9.03;;
3177;SDS011;38141;42.666;23.344;2023-04-01T02:27:18;11.43;;;8.30;;
3177;SDS011;38141;42.666;23.344;2023-04-01T02:29:46;14.97;;;7.93;;
3177;SDS011;38141;42.666;23.344;2023-04-01T02:32:13;13.40;;;8.03;;
3177;SDS011;38141;42.666;23.344;2023-04-01T02:34:41;10.90;;;7.30;;
3177;SDS011;38141;42.666;23.344;2023-04-01T02:37:09;11.20;;;6.43;;
3177;SDS011;38141;42.666;23.344;2023-04-01T02:39:37;12.77;;;7.07;;
3177;SDS011;38141;42.666;23.344;2023-04-01T02:42:04;11.20;;;7.10;;
3177;SDS011;38141;42.666;23.344;2023-04-01T02:44:34;18.03;;;9.77;;
3177;SDS011;38141;42.666;23.344;2023-04-01T02:47:00;16.10;;;7.90;;
3177;SDS011;38141;42.666;23.344;2023-04-01T02:49:27;9.70;;;6.50;;
3177;SDS011;38141;42.666;23.344;2023-04-01T02:51:54;16.00;;;8.33;;
3177;SDS011;38141;42.666;23.344;2023-04-01T02:54:21;17.27;;;6.53;;
3177;SDS011;38141;42.666;23.344;2023-04-01T02:56:48;9.33;;;6.60;;
3177;SDS011;38141;42.666;23.344;2023-04-01T02:59:14;11.50;;;6.00;;
3177;SDS011;38141;42.666;23.344;2023-04-01T03:01:43;13.10;;;6.67;;
3177;SDS011;38141;42.666;23.344;2023-04-01T03:04:09;12.83;;;6.60;;
3177;SDS011;38141;42.666;23.344;2023-04-01T03:06:36;13.83;;;7.37;;
3177;SDS011;38141;42.666;23.344;2023-04-01T03:09:03;11.40;;;7.07;;
3177;SDS011;38141;42.666;23.344;2023-04-01T03:11:30;11.03;;;6.40;;
3177;SDS011;38141;42.666;23.344;2023-04-01T03:13:59;14.53;;;7.40;;
3177;SDS011;38141;42.666;23.344;2023-04-01T03:16:26;11.40;;;8.20;;
3177;SDS011;38141;42.666;23.344;2023-04-01T03:18:54;19.33;;;7.90;;
3177;SDS011;38141;42.666;23.344;2023-04-01T03:21:24;11.33;;;7.70;;
3177;SDS011;38141;42.666;23.344;2023-04-01T03:23:51;18.83;;;8.27;;
3177;SDS011;38141;42.666;23.344;2023-04-01T03:26:17;17.57;;;8.73;;
3177;SDS011;38141;42.666;23.344;2023-04-01T03:28:44;13.57;;;8.80;;
3177;SDS011;38141;42.666;23.344;2023-04-01T03:31:11;15.53;;;9.00;;
3177;SDS011;38141;42.666;23.344;2023-04-01T03:33:38;22.20;;;10.73;;
3177;SDS011;38141;42.666;23.344;2023-04-01T03:36:07;15.83;;;8.90;;
3177;SDS011;38141;42.666;23.344;2023-04-01T03:38:34;13.57;;;8.40;;
3177;SDS011;38141;42.666;23.344;2023-04-01T03:41:01;21.10;;;9.40;;
3177;SDS011;38141;42.666;23.344;2023-04-01T03:43:28;18.23;;;9.37;;
3177;SDS011;38141;42.666;23.344;2023-04-01T03:45:55;16.20;;;9.27;;
3177;SDS011;38141;42.666;23.344;2023-04-01T03:48:23;15.53;;;9.10;;
3177;SDS011;38141;42.666;23.344;2023-04-01T03:50:50;18.10;;;9.50;;
3177;SDS011;38141;42.666;23.344;2023-04-01T03:53:18;17.47;;;10.00;;
3177;SDS011;38141;42.666;23.344;2023-04-01T03:55:45;22.17;;;9.63;;
3177;SDS011;38141;42.666;23.344;2023-04-01T03:58:12;17.37;;;9.67;;
3177;SDS011;38141;42.666;23.344;2023-04-01T04:00:39;20.13;;;10.30;;
3177;SDS011;38141;42.666;23.344;2023-04-01T04:03:05;15.83;;;9.83;;
3177;SDS011;38141;42.666;23.344;2023-04-01T04:05:33;15.27;;;9.90;;
3177;SDS011;38141;42.666;23.344;2023-04-01T04:07:59;18.87;;;10.30;;
3177;SDS011;38141;42.666;23.344;2023-04-01T04:10:28;17.27;;;9.57;;
3177;SDS011;38141;42.666;23.344;2023-04-01T04:12:56;15.50;;;9.70;;
3177;SDS011;38141;42.666;23.344;2023-04-01T04:15:23;18.20;;;11.30;;
3177;SDS011;38141;42.666;23.344;2023-04-01T04:17:49;25.80;;;11.13;;
3177;SDS011;38141;42.666;23.344;2023-04-01T04:20:16;18.20;;;10.63;;
3177;SDS011;38141;42.666;23.344;2023-04-01T04:22:43;16.77;;;10.93;;
3177;SDS011;38141;42.666;23.344;2023-04-01T04:25:10;18.17;;;9.90;;
3177;SDS011;38141;42.666;23.344;2023-04-01T04:27:38;22.13;;;10.30;;
3177;SDS011;38141;42.666;23.344;2023-04-01T04:30:05;12.93;;;9.33;;
3177;SDS011;38141;42.666;23.344;2023-04-01T04:32:33;17.07;;;8.90;;
3177;SDS011;38141;42.666;23.344;2023-04-01T04:35:00;15.77;;;9.17;;
3177;SDS011;38141;42.666;23.344;2023-04-01T04:37:26;15.60;;;8.77;;
3177;SDS011;38141;42.666;23.344;2023-04-01T04:39:53;13.40;;;8.80;;
3177;SDS011;38141;42.666;23.344;2023-04-01T04:42:20;18.40;;;9.00;;
3177;SDS011;38141;42.666;23.344;2023-04-01T04:44:48;11.57;;;8.80;;
3177;SDS011;38141;42.666;23.344;2023-04-01T04:47:15;12.07;;;8.40;;
3177;SDS011;38141;42.666;23.344;2023-04-01T04:49:42;14.53;;;8.03;;
3177;SDS011;38141;42.666;23.344;2023-04-01T04:52:08;14.53;;;8.60;;
3177;SDS011;38141;42.666;23.344;2023-04-01T04:54:35;10.90;;;8.20;;
3177;SDS011;38141;42.666;23.344;2023-04-01T04:57:02;12.10;;;8.10;;
3177;SDS011;38141;42.666;23.344;2023-04-01T04:59:30;17.17;;;9.10;;
3177;SDS011;38141;42.666;23.344;2023-04-01T05:01:58;17.40;;;8.30;;
3177;SDS011;38141;42.666;23.344;2023-04-01T05:04:25;19.13;;;8.33;;
3177;SDS011;38141;42.666;23.344;2023-04-01T05:06:51;18.33;;;8.67;;
3177;SDS011;38141;42.666;23.344;2023-04-01T05:09:18;17.70;;;9.13;;
3177;SDS011;38141;42.666;23.344;2023-04-01T05:11:45;15.67;;;9.80;;
3177;SDS011;38141;42.666;23.344;2023-04-01T05:14:13;12.87;;;8.27;;
3177;SDS011;38141;42.666;23.344;2023-04-01T05:16:41;15.30;;;10.00;;
3177;SDS011;38141;42.666;23.344;2023-04-01T05:19:09;16.47;;;8.77;;
3177;SDS011;38141;42.666;23.344;2023-04-01T05:21:37;22.60;;;10.20;;
3177;SDS011;38141;42.666;23.344;2023-04-01T05:24:07;13.37;;;9.27;;
3177;SDS011;38141;42.666;23.344;2023-04-01T05:26:34;18.07;;;10.37;;
3177;SDS011;38141;42.666;23.344;2023-04-01T05:29:01;12.90;;;8.70;;
3177;SDS011;38141;42.666;23.344;2023-04-01T05:31:28;14.80;;;9.37;;
3177;SDS011;38141;42.666;23.344;2023-04-01T05:33:55;11.30;;;9.00;;
3177;SDS011;38141;42.666;23.344;2023-04-01T05:36:24;17.90;;;9.70;;
3177;SDS011;38141;42.666;23.344;2023-04-01T05:38:50;13.40;;;9.60;;
3177;SDS011;38141;42.666;23.344;2023-04-01T05:41:21;14.23;;;8.13;;
3177;SDS011;38141;42.666;23.344;2023-04-01T05:43:48;14.40;;;8.53;;
3177;SDS011;38141;42.666;23.344;2023-04-01T05:46:14;15.97;;;8.60;;
3177;SDS011;38141;42.666;23.344;2023-04-01T05:48:41;16.70;;;8.17;;
3177;SDS011;38141;42.666;23.344;2023-04-01T05:51:12;16.63;;;8.90;;
3177;SDS011;38141;42.666;23.344;2023-04-01T05:53:40;13.80;;;8.47;;
3177;SDS011;38141;42.666;23.344;2023-04-01T05:56:08;15.10;;;7.70;;
3177;SDS011;38141;42.666;23.344;2023-04-01T05:58:35;14.40;;;9.07;;
3177;SDS011;38141;42.666;23.344;2023-04-01T06:01:02;12.03;;;8.03;;
3177;SDS011;38141;42.666;23.344;2023-04-01T06:03:29;14.40;;;7.80;;
3177;SDS011;38141;42.666;23.344;2023-04-01T06:05:56;11.50;;;6.90;;
3177;SDS011;38141;42.666;23.344;2023-04-01T06:08:23;10.50;;;6.50;;
3177;SDS011;38141;42.666;23.344;2023-04-01T06:10:58;9.47;;;6.80;;
3177;SDS011;38141;42.666;23.344;2023-04-01T06:13:45;10.50;;;7.20;;
3177;SDS011;38141;42.666;23.344;2023-04-01T06:16:32;10.07;;;6.40;;
3177;SDS011;38141;42.666;23.344;2023-04-01T06:27:59;7.40;;;5.30;;
3177;SDS011;38141;42.666;23.344;2023-04-01T06:30:35;10.07;;;6.27;;
3177;SDS011;38141;42.666;23.344;2023-04-01T06:33:10;13.50;;;6.10;;
3177;SDS011;38141;42.666;23.344;2023-04-01T06:36:00;7.43;;;5.13;;
3177;SDS011;38141;42.666;23.344;2023-04-01T06:38:41;11.00;;;6.10;;
3177;SDS011;38141;42.666;23.344;2023-04-01T06:41:36;13.20;;;7.80;;
3177;SDS011;38141;42.666;23.344;2023-04-01T06:44:25;16.00;;;8.77;;
3177;SDS011;38141;42.666;23.344;2023-04-01T06:47:04;15.30;;;8.70;;
3177;SDS011;38141;42.666;23.344;2023-04-01T06:49:44;15.73;;;9.80;;
3177;SDS011;38141;42.666;23.344;2023-04-01T06:52:19;15.20;;;9.43;;
3177;SDS011;38141;42.666;23.344;2023-04-01T06:54:54;12.00;;;7.07;;
3177;SDS011;38141;42.666;23.344;2023-04-01T06:57:28;11.63;;;7.17;;
3177;SDS011;38141;42.666;23.344;2023-04-01T07:00:00;16.53;;;8.43;;
3177;SDS011;38141;42.666;23.344;2023-04-01T07:02:39;14.17;;;7.00;;
3177;SDS011;38141;42.666;23.344;2023-04-01T07:05:11;13.03;;;7.20;;
3177;SDS011;38141;42.666;23.344;2023-04-01T07:07:41;9.80;;;7.20;;
3177;SDS011;38141;42.666;23.344;2023-04-01T07:10:12;10.00;;;7.07;;
3177;SDS011;38141;42.666;23.344;2023-04-01T07:12:44;13.23;;;7.60;;
3177;SDS011;38141;42.666;23.344;2023-04-01T07:15:19;12.97;;;7.83;;
3177;SDS011;38141;42.666;23.344;2023-04-01T07:17:52;9.90;;;6.60;;
3177;SDS011;38141;42.666;23.344;2023-04-01T07:20:22;10.13;;;6.10;;
3177;SDS011;38141;42.666;23.344;2023-04-01T07:22:54;11.50;;;6.60;;
3177;SDS011;38141;42.666;23.344;2023-04-01T07:25:27;12.40;;;6.80;;
3177;SDS011;38141;42.666;23.344;2023-04-01T07:27:59;17.53;;;8.10;;
3177;SDS011;38141;42.666;23.344;2023-04-01T07:30:30;12.20;;;7.03;;
3177;SDS011;38141;42.666;23.344;2023-04-01T07:33:14;10.33;;;6.87;;
3177;SDS011;38141;42.666;23.344;2023-04-01T07:35:46;11.87;;;7.03;;
3177;SDS011;38141;42.666;23.344;2023-04-01T07:38:21;11.67;;;7.03;;
3177;SDS011;38141;42.666;23.344;2023-04-01T07:40:58;35.43;;;16.30;;
3177;SDS011;38141;42.666;23.344;2023-04-01T07:43:38;19.60;;;11.40;;
3177;SDS011;38141;42.666;23.344;2023-04-01T07:46:22;43.50;;;20.07;;
3177;SDS011;38141;42.666;23.344;2023-04-01T07:49:01;22.00;;;11.10;;
3177;SDS011;38141;42.666;23.344;2023-04-01T07:51:36;14.77;;;9.27;;
3177;SDS011;38141;42.666;23.344;2023-04-01T07:54:10;19.63;;;10.83;;
3177;SDS011;38141;42.666;23.344;2023-04-01T07:56:44;28.73;;;16.80;;
3177;SDS011;38141;42.666;23.344;2023-04-01T07:59:17;17.53;;;9.60;;
3177;SDS011;38141;42.666;23.344;2023-04-01T08:01:55;17.23;;;9.13;;
3177;SDS011;38141;42.666;23.344;2023-04-01T08:04:33;17.07;;;8.63;;
3177;SDS011;38141;42.666;23.344;2023-04-01T08:07:10;31.83;;;11.57;;
3177;SDS011;38141;42.666;23.344;2023-04-01T08:09:43;16.27;;;9.10;;
3177;SDS011;38141;42.666;23.344;2023-04-01T08:12:19;12.03;;;6.90;;
3177;SDS011;38141;42.666;23.344;2023-04-01T08:14:56;11.70;;;8.00;;
3177;SDS011;38141;42.666;23.344;2023-04-01T08:17:36;14.87;;;7.97;;
3177;SDS011;38141;42.666;23.344;2023-04-01T08:20:14;16.87;;;8.67;;
3177;SDS011;38141;42.666;23.344;2023-04-01T08:22:50;16.10;;;5.97;;
3177;SDS011;38141;42.666;23.344;2023-04-01T08:25:21;14.93;;;7.13;;
3177;SDS011;38141;42.666;23.344;2023-04-01T08:27:53;13.87;;;7.10;;
3177;SDS011;38141;42.666;23.344;2023-04-01T08:30:26;10.47;;;7.50;;
3177;SDS011;38141;42.666;23.344;2023-04-01T08:33:03;22.40;;;14.67;;
3177;SDS011;38141;42.666;23.344;2023-04-01T08:35:37;11.40;;;7.50;;
3177;SDS011;38141;42.666;23.344;2023-04-01T08:38:10;16.63;;;6.27;;
3177;SDS011;38141;42.666;23.344;2023-04-01T08:40:49;12.87;;;7.20;;
3177;SDS011;38141;42.666;23.344;2023-04-01T08:43:24;8.30;;;5.83;;
3177;SDS011;38141;42.666;23.344;2023-04-01T08:49:05;11.20;;;5.30;;
3177;SDS011;38141;42.666;23.344;2023-04-01T08:51:50;12.47;;;6.13;;
3177;SDS011;38141;42.666;23.344;2023-04-01T08:54:46;12.40;;;6.67;;
3177;SDS011;38141;42.666;23.344;2023-04-01T08:57:28;14.10;;;6.27;;
3177;SDS011;38141;42.666;23.344;2023-04-01T09:00:07;12.63;;;6.80;;
3177;SDS011;38141;42.666;23.344;2023-04-01T09:02:57;15.43;;;6.20;;
3177;SDS011;38141;42.666;23.344;2023-04-01T09:05:42;13.93;;;5.87;;
3177;SDS011;38141;42.666;23.344;2023-04-01T09:08:31;13.00;;;6.60;;
3177;SDS011;38141;42.666;23.344;2023-04-01T09:11:12;9.13;;;5.30;;
3177;SDS011;38141;42.666;23.344;2023-04-01T09:17:01;8.23;;;5.13;;
3177;SDS011;38141;42.666;23.344;2023-04-01T09:19:54;50.10;;;9.27;;
3177;SDS011;38141;42.666;23.344;2023-04-01T09:22:37;232.07;;;25.23;;
3177;SDS011;38141;42.666;23.344;2023-04-01T09:25:22;20.37;;;5.93;;
3177;SDS011;38141;42.666;23.344;2023-04-01T09:27:57;12.60;;;5.97;;
3177;SDS011;38141;42.666;23.344;2023-04-01T09:30:39;55.77;;;11.23;;
3177;SDS011;38141;42.666;23.344;2023-04-01T09:36:24;10.33;;;4.30;;
3177;SDS011;38141;42.666;23.344;2023-04-01T09:39:12;12.37;;;4.93;;
3177;SDS011;38141;42.666;23.344;2023-04-01T09:42:06;8.00;;;5.70;;
3177;SDS011;38141;42.666;23.344;2023-04-01T09:44:41;11.07;;;5.40;;
3177;SDS011;38141;42.666;23.344;2023-04-01T09:47:21;9.73;;;4.77;;
3177;SDS011;38141;42.666;23.344;2023-04-01T09:50:10;9.10;;;5.10;;
3177;SDS011;38141;42.666;23.344;2023-04-01T09:52:52;9.60;;;5.90;;
3177;SDS011;38141;42.666;23.344;2023-04-01T10:01:58;18.10;;;5.30;;
3177;SDS011;38141;42.666;23.344;2023-04-01T10:08:01;12.20;;;4.60;;
3177;SDS011;38141;42.666;23.344;2023-04-01T10:11:04;9.30;;;4.13;;
3177;SDS011;38141;42.666;23.344;2023-04-01T10:20:02;14.47;;;6.40;;
3177;SDS011;38141;42.666;23.344;2023-04-01T10:29:13;9.43;;;4.40;;
3177;SDS011;38141;42.666;23.344;2023-04-01T10:35:21;10.20;;;4.70;;
3177;SDS011;38141;42.666;23.344;2023-04-01T10:41:07;8.43;;;4.30;;
3177;SDS011;38141;42.666;23.344;2023-04-01T10:47:15;6.80;;;4.00;;
3177;SDS011;38141;42.666;23.344;2023-04-01T10:50:10;5.80;;;4.47;;
3177;SDS011;38141;42.666;23.344;2023-04-01T10:59:16;12.40;;;4.83;;
3177;SDS011;38141;42.666;23.344;2023-04-01T11:20:53;16.13;;;5.30;;
3177;SDS011;38141;42.666;23.344;2023-04-01T11:26:33;10.17;;;3.60;;
3177;SDS011;38141;42.666;23.344;2023-04-01T11:29:14;8.43;;;3.50;;
3177;SDS011;38141;42.666;23.344;2023-04-01T11:31:54;11.10;;;3.07;;
3177;SDS011;38141;42.666;23.344;2023-04-01T11:34:35;34.80;;;4.57;;
3177;SDS011;38141;42.666;23.344;2023-04-01T11:37:16;9.77;;;3.23;;
3177;SDS011;38141;42.666;23.344;2023-04-01T11:39:58;11.50;;;2.87;;
3177;SDS011;38141;42.666;23.344;2023-04-01T11:42:36;5.50;;;2.97;;
3177;SDS011;38141;42.666;23.344;2023-04-01T11:45:19;5.90;;;3.30;;
3177;SDS011;38141;42.666;23.344;2023-04-01T11:47:58;8.63;;;3.00;;
3177;SDS011;38141;42.666;23.344;2023-04-01T11:50:38;9.33;;;2.80;;
3177;SDS011;38141;42.666;23.344;2023-04-01T11:53:24;8.03;;;3.40;;
3177;SDS011;38141;42.666;23.344;2023-04-01T11:56:13;7.20;;;3.40;;
3177;SDS011;38141;42.666;23.344;2023-04-01T11:58:58;8.30;;;3.70;;
3177;SDS011;38141;42.666;23.344;2023-04-01T12:01:39;6.90;;;3.67;;
3177;SDS011;38141;42.666;23.344;2023-04-01T12:07:11;5.80;;;3.83;;
3177;SDS011;38141;42.666;23.344;2023-04-01T12:09:48;11.13;;;4.20;;
3177;SDS011;38141;42.666;23.344;2023-04-01T12:12:27;5.80;;;3.03;;
3177;SDS011;38141;42.666;23.344;2023-04-01T12:15:05;9.00;;;4.13;;
3177;SDS011;38141;42.666;23.344;2023-04-01T12:17:43;4.87;;;3.70;;
3177;SDS011;38141;42.666;23.344;2023-04-01T12:20:28;10.40;;;4.30;;
3177;SDS011;38141;42.666;23.344;2023-04-01T12:23:06;8.07;;;4.60;;
3177;SDS011;38141;42.666;23.344;2023-04-01T12:25:49;6.97;;;4.20;;
3177;SDS011;38141;42.666;23.344;2023-04-01T12:28:36;8.13;;;4.63;;
3177;SDS011;38141;42.666;23.344;2023-04-01T12:31:22;6.27;;;4.13;;
3177;SDS011;38141;42.666;23.344;2023-04-01T12:34:13;7.23;;;4.83;;
3177;SDS011;38141;42.666;23.344;2023-04-01T12:37:03;7.63;;;4.80;;
3177;SDS011;38141;42.666;23.344;2023-04-01T12:39:50;6.93;;;4.50;;
3177;SDS011;38141;42.666;23.344;2023-04-01T12:42:33;20.10;;;11.17;;
3177;SDS011;38141;42.666;23.344;2023-04-01T12:45:23;11.63;;;5.70;;
3177;SDS011;38141;42.666;23.344;2023-04-01T12:51:00;7.90;;;4.60;;
3177;SDS011;38141;42.666;23.344;2023-04-01T12:53:58;9.13;;;5.77;;
3177;SDS011;38141;42.666;23.344;2023-04-01T12:56:54;10.00;;;6.03;;
3177;SDS011;38141;42.666;23.344;2023-04-01T12:59:50;7.20;;;5.10;;
3177;SDS011;38141;42.666;23.344;2023-04-01T13:02:32;10.67;;;4.93;;
3177;SDS011;38141;42.666;23.344;2023-04-01T13:05:21;12.23;;;6.50;;
3177;SDS011;38141;42.666;23.344;2023-04-01T13:08:07;10.80;;;5.87;;
3177;SDS011;38141;42.666;23.344;2023-04-01T13:10:53;6.70;;;5.00;;
3177;SDS011;38141;42.666;23.344;2023-04-01T13:16:38;8.43;;;4.80;;
3177;SDS011;38141;42.666;23.344;2023-04-01T13:19:09;43.47;;;10.30;;
3177;SDS011;38141;42.666;23.344;2023-04-01T13:21:49;8.77;;;5.00;;
3177;SDS011;38141;42.666;23.344;2023-04-01T13:24:40;9.73;;;5.40;;
3177;SDS011;38141;42.666;23.344;2023-04-01T13:27:17;8.97;;;4.53;;
3177;SDS011;38141;42.666;23.344;2023-04-01T13:29:52;7.03;;;4.77;;
3177;SDS011;38141;42.666;23.344;2023-04-01T13:35:25;6.37;;;5.20;;
3177;SDS011;38141;42.666;23.344;2023-04-01T13:38:32;5.77;;;4.50;;
3177;SDS011;38141;42.666;23.344;2023-04-01T13:41:20;4.63;;;3.43;;
3177;SDS011;38141;42.666;23.344;2023-04-01T13:43:58;5.50;;;3.97;;
3177;SDS011;38141;42.666;23.344;2023-04-01T13:46:38;9.93;;;4.20;;
3177;SDS011;38141;42.666;23.344;2023-04-01T13:49:25;6.63;;;4.20;;
3177;SDS011;38141;42.666;23.344;2023-04-01T13:52:13;5.17;;;4.10;;
3177;SDS011;38141;42.666;23.344;2023-04-01T13:58:04;6.90;;;4.10;;
3177;SDS011;38141;42.666;23.344;2023-04-01T14:00:56;6.93;;;4.50;;
3177;SDS011;38141;42.666;23.344;2023-04-01T14:03:39;5.77;;;3.97;;
3177;SDS011;38141;42.666;23.344;2023-04-01T14:06:20;5.70;;;4.13;;
3177;SDS011;38141;42.666;23.344;2023-04-01T14:09:02;7.87;;;4.23;;
3177;SDS011;38141;42.666;23.344;2023-04-01T14:11:56;25.63;;;6.40;;
3177;SDS011;38141;42.666;23.344;2023-04-01T14:14:38;16.40;;;5.27;;
3177;SDS011;38141;42.666;23.344;2023-04-01T14:17:21;17.23;;;7.00;;
3177;SDS011;38141;42.666;23.344;2023-04-01T14:23:20;14.07;;;8.60;;
3177;SDS011;38141;42.666;23.344;2023-04-01T14:28:53;12.40;;;7.93;;
3177;SDS011;38141;42.666;23.344;2023-04-01T14:31:37;11.50;;;7.20;;
3177;SDS011;38141;42.666;23.344;2023-04-01T14:34:21;9.07;;;5.70;;
3177;SDS011;38141;42.666;23.344;2023-04-01T14:42:56;18.33;;;11.83;;
3177;SDS011;38141;42.666;23.344;2023-04-01T14:48:49;7.27;;;4.70;;
3177;SDS011;38141;42.666;23.344;2023-04-01T14:51:19;7.30;;;5.30;;
3177;SDS011;38141;42.666;23.344;2023-04-01T14:53:56;8.03;;;4.43;;
3177;SDS011;38141;42.666;23.344;2023-04-01T14:56:37;7.50;;;4.97;;
3177;SDS011;38141;42.666;23.344;2023-04-01T14:59:07;7.80;;;4.13;;
3177;SDS011;38141;42.666;23.344;2023-04-01T15:04:37;8.10;;;4.50;;
3177;SDS011;38141;42.666;23.344;2023-04-01T15:07:20;8.27;;;4.07;;
3177;SDS011;38141;42.666;23.344;2023-04-01T15:10:01;7.70;;;4.53;;
3177;SDS011;38141;42.666;23.344;2023-04-01T15:12:48;9.73;;;5.60;;
3177;SDS011;38141;42.666;23.344;2023-04-01T15:15:24;5.30;;;3.90;;
3177;SDS011;38141;42.666;23.344;2023-04-01T15:18:07;11.37;;;4.40;;
3177;SDS011;38141;42.666;23.344;2023-04-01T15:23:38;7.17;;;4.60;;
3177;SDS011;38141;42.666;23.344;2023-04-01T15:26:14;6.83;;;4.37;;
3177;SDS011;38141;42.666;23.344;2023-04-01T15:29:03;8.33;;;4.20;;
3177;SDS011;38141;42.666;23.344;2023-04-01T15:31:46;7.60;;;4.40;;
3177;SDS011;38141;42.666;23.344;2023-04-01T15:34:27;8.60;;;4.63;;
3177;SDS011;38141;42.666;23.344;2023-04-01T15:37:02;7.73;;;5.10;;
3177;SDS011;38141;42.666;23.344;2023-04-01T15:39:39;7.00;;;5.20;;
3177;SDS011;38141;42.666;23.344;2023-04-01T15:42:19;7.53;;;5.33;;
3177;SDS011;38141;42.666;23.344;2023-04-01T15:45:03;8.37;;;4.80;;
3177;SDS011;38141;42.666;23.344;2023-04-01T15:47:45;14.07;;;9.90;;
3177;SDS011;38141;42.666;23.344;2023-04-01T15:50:26;8.50;;;6.10;;
3177;SDS011;38141;42.666;23.344;2023-04-01T15:53:23;7.10;;;3.80;;
3177;SDS011;38141;42.666;23.344;2023-04-01T15:56:16;4.63;;;1.90;;
3177;SDS011;38141;42.666;23.344;2023-04-01T15:58:54;4.20;;;3.13;;
3177;SDS011;38141;42.666;23.344;2023-04-01T16:01:36;3.40;;;2.13;;
3177;SDS011;38141;42.666;23.344;2023-04-01T16:04:17;5.53;;;2.90;;
3177;SDS011;38141;42.666;23.344;2023-04-01T16:07:02;4.17;;;2.80;;
3177;SDS011;38141;42.666;23.344;2023-04-01T16:09:39;6.87;;;2.97;;
3177;SDS011;38141;42.666;23.344;2023-04-01T16:12:17;8.73;;;5.17;;
3177;SDS011;38141;42.666;23.344;2023-04-01T16:14:51;4.80;;;3.30;;
3177;SDS011;38141;42.666;23.344;2023-04-01T16:20:25;5.70;;;4.00;;
3177;SDS011;38141;42.666;23.344;2023-04-01T16:23:10;4.57;;;3.57;;
3177;SDS011;38141;42.666;23.344;2023-04-01T16:25:45;6.80;;;3.90;;
3177;SDS011;38141;42.666;23.344;2023-04-01T16:28:21;5.17;;;3.90;;
3177;SDS011;38141;42.666;23.344;2023-04-01T16:30:55;7.60;;;4.77;;
3177;SDS011;38141;42.666;23.344;2023-04-01T16:33:27;11.40;;;5.20;;
3177;SDS011;38141;42.666;23.344;2023-04-01T16:36:07;7.00;;;4.00;;
3177;SDS011;38141;42.666;23.344;2023-04-01T16:38:40;5.27;;;4.27;;
3177;SDS011;38141;42.666;23.344;2023-04-01T16:41:15;5.70;;;3.77;;
3177;SDS011;38141;42.666;23.344;2023-04-01T16:43:44;7.17;;;3.97;;
3177;SDS011;38141;42.666;23.344;2023-04-01T16:46:27;4.70;;;3.60;;
3177;SDS011;38141;42.666;23.344;2023-04-01T16:51:52;4.73;;;3.47;;
3177;SDS011;38141;42.666;23.344;2023-04-01T16:54:28;4.40;;;2.70;;
3177;SDS011;38141;42.666;23.344;2023-04-01T16:57:02;3.83;;;2.90;;
3177;SDS011;38141;42.666;23.344;2023-04-01T16:59:34;2.77;;;2.57;;
3177;SDS011;38141;42.666;23.344;2023-04-01T17:02:02;3.27;;;2.97;;
3177;SDS011;38141;42.666;23.344;2023-04-01T17:04:38;4.43;;;2.57;;
3177;SDS011;38141;42.666;23.344;2023-04-01T17:07:20;2.60;;;2.03;;
3177;SDS011;38141;42.666;23.344;2023-04-01T17:10:00;4.33;;;2.73;;
3177;SDS011;38141;42.666;23.344;2023-04-01T17:12:42;2.60;;;2.10;;
3177;SDS011;38141;42.666;23.344;2023-04-01T17:15:17;2.93;;;2.63;;
3177;SDS011;38141;42.666;23.344;2023-04-01T17:17:54;2.83;;;2.30;;
3177;SDS011;38141;42.666;23.344;2023-04-01T17:20:35;2.40;;;2.13;;
3177;SDS011;38141;42.666;23.344;2023-04-01T17:23:14;3.43;;;2.50;;
3177;SDS011;38141;42.666;23.344;2023-04-01T17:26:02;2.43;;;2.17;;
3177;SDS011;38141;42.666;23.344;2023-04-01T17:28:39;2.67;;;2.17;;